Terminal Aerodrome Forecast
Issued by NWS

Home | Current Version | Previous Version | Text Only | Print | Product List | Glossary On
Versions: 1 2 3 4 5 6 7 8 9 10 11 12 13
000
FTUS46 KLOX 270500
TAFSBA
TAF
KSBA 270520Z 2706/2806 10004KT 6SM -RA BR SCT035 OVC080
     FM271200 VRB03KT P6SM VCSH BKN080 BKN120
     FM271400 18006KT P6SM SCT080
     FM272000 24008KT P6SM SCT200
     FM280200 VRB03KT P6SM FEW200=

USA.gov is the U.S. government's official web portal to all federal, state and local government web resources and services.